sensor_id;sensor_type;location;lat;lon;timestamp;P1;durP1;ratioP1;P2;durP2;ratioP2
6414;SDS011;3240;48.790;9.210;2023-05-07T00:01:31;3.10;;;1.90;;
6414;SDS011;3240;48.790;9.210;2023-05-07T00:03:59;2.57;;;2.10;;
6414;SDS011;3240;48.790;9.210;2023-05-07T00:06:27;2.30;;;1.90;;
6414;SDS011;3240;48.790;9.210;2023-05-07T00:08:56;2.37;;;1.93;;
6414;SDS011;3240;48.790;9.210;2023-05-07T00:11:24;2.67;;;2.10;;
6414;SDS011;3240;48.790;9.210;2023-05-07T00:13:52;2.03;;;1.80;;
6414;SDS011;3240;48.790;9.210;2023-05-07T00:16:21;2.40;;;2.03;;
6414;SDS011;3240;48.790;9.210;2023-05-07T00:18:49;2.10;;;1.90;;
6414;SDS011;3240;48.790;9.210;2023-05-07T00:21:17;2.13;;;1.83;;
6414;SDS011;3240;48.790;9.210;2023-05-07T00:23:46;2.43;;;2.03;;
6414;SDS011;3240;48.790;9.210;2023-05-07T00:26:14;2.13;;;1.93;;
6414;SDS011;3240;48.790;9.210;2023-05-07T00:28:42;3.27;;;2.40;;
6414;SDS011;3240;48.790;9.210;2023-05-07T00:31:11;2.23;;;2.00;;
6414;SDS011;3240;48.790;9.210;2023-05-07T00:33:39;2.40;;;2.20;;
6414;SDS011;3240;48.790;9.210;2023-05-07T00:36:07;2.70;;;2.20;;
6414;SDS011;3240;48.790;9.210;2023-05-07T00:38:36;2.10;;;1.90;;
6414;SDS011;3240;48.790;9.210;2023-05-07T00:41:04;2.80;;;2.17;;
6414;SDS011;3240;48.790;9.210;2023-05-07T00:43:32;1.97;;;1.80;;
6414;SDS011;3240;48.790;9.210;2023-05-07T00:46:01;1.80;;;1.60;;
6414;SDS011;3240;48.790;9.210;2023-05-07T00:48:29;2.50;;;2.10;;
6414;SDS011;3240;48.790;9.210;2023-05-07T00:50:57;2.57;;;2.23;;
6414;SDS011;3240;48.790;9.210;2023-05-07T00:53:26;2.70;;;2.50;;
6414;SDS011;3240;48.790;9.210;2023-05-07T00:55:54;2.03;;;1.80;;
6414;SDS011;3240;48.790;9.210;2023-05-07T00:58:23;2.70;;;2.17;;
6414;SDS011;3240;48.790;9.210;2023-05-07T01:00:51;1.90;;;1.70;;
6414;SDS011;3240;48.790;9.210;2023-05-07T01:03:19;5.93;;;2.40;;
6414;SDS011;3240;48.790;9.210;2023-05-07T01:05:47;2.90;;;2.40;;
6414;SDS011;3240;48.790;9.210;2023-05-07T01:08:16;2.00;;;1.90;;
6414;SDS011;3240;48.790;9.210;2023-05-07T01:10:44;2.13;;;1.93;;
6414;SDS011;3240;48.790;9.210;2023-05-07T01:13:12;2.50;;;2.20;;
6414;SDS011;3240;48.790;9.210;2023-05-07T01:15:41;2.57;;;2.00;;
6414;SDS011;3240;48.790;9.210;2023-05-07T01:18:09;2.10;;;1.90;;
6414;SDS011;3240;48.790;9.210;2023-05-07T01:20:37;2.40;;;1.93;;
6414;SDS011;3240;48.790;9.210;2023-05-07T01:23:06;2.67;;;1.93;;
6414;SDS011;3240;48.790;9.210;2023-05-07T01:25:34;3.10;;;2.07;;
6414;SDS011;3240;48.790;9.210;2023-05-07T01:28:02;2.50;;;2.10;;
6414;SDS011;3240;48.790;9.210;2023-05-07T01:30:31;2.50;;;2.20;;
6414;SDS011;3240;48.790;9.210;2023-05-07T01:33:01;2.40;;;1.97;;
6414;SDS011;3240;48.790;9.210;2023-05-07T01:35:36;2.90;;;2.00;;
6414;SDS011;3240;48.790;9.210;2023-05-07T01:37:57;2.57;;;2.37;;
6414;SDS011;3240;48.790;9.210;2023-05-07T01:40:25;2.57;;;2.10;;
6414;SDS011;3240;48.790;9.210;2023-05-07T01:42:53;2.30;;;1.93;;
6414;SDS011;3240;48.790;9.210;2023-05-07T01:45:22;2.77;;;2.13;;
6414;SDS011;3240;48.790;9.210;2023-05-07T01:47:50;2.60;;;2.40;;
6414;SDS011;3240;48.790;9.210;2023-05-07T01:50:18;3.53;;;2.10;;
6414;SDS011;3240;48.790;9.210;2023-05-07T01:52:47;2.63;;;2.20;;
6414;SDS011;3240;48.790;9.210;2023-05-07T01:55:15;3.27;;;2.27;;
6414;SDS011;3240;48.790;9.210;2023-05-07T01:57:43;2.00;;;1.80;;
6414;SDS011;3240;48.790;9.210;2023-05-07T02:00:12;3.77;;;2.20;;
6414;SDS011;3240;48.790;9.210;2023-05-07T02:02:40;2.77;;;2.30;;
6414;SDS011;3240;48.790;9.210;2023-05-07T02:05:08;2.37;;;2.00;;
6414;SDS011;3240;48.790;9.210;2023-05-07T02:07:37;3.73;;;2.40;;
6414;SDS011;3240;48.790;9.210;2023-05-07T02:10:05;2.30;;;1.90;;
6414;SDS011;3240;48.790;9.210;2023-05-07T02:12:34;2.70;;;2.10;;
6414;SDS011;3240;48.790;9.210;2023-05-07T02:15:02;2.30;;;2.00;;
6414;SDS011;3240;48.790;9.210;2023-05-07T02:17:31;2.10;;;1.97;;
6414;SDS011;3240;48.790;9.210;2023-05-07T02:20:00;2.30;;;2.00;;
6414;SDS011;3240;48.790;9.210;2023-05-07T02:22:28;2.80;;;1.90;;
6414;SDS011;3240;48.790;9.210;2023-05-07T02:24:56;3.27;;;2.23;;
6414;SDS011;3240;48.790;9.210;2023-05-07T02:27:25;2.93;;;2.13;;
6414;SDS011;3240;48.790;9.210;2023-05-07T02:29:53;2.92;;;2.20;;
6414;SDS011;3240;48.790;9.210;2023-05-07T02:32:21;2.97;;;2.13;;
6414;SDS011;3240;48.790;9.210;2023-05-07T02:34:50;2.93;;;2.10;;
6414;SDS011;3240;48.790;9.210;2023-05-07T02:37:18;2.50;;;1.97;;
6414;SDS011;3240;48.790;9.210;2023-05-07T02:39:46;2.30;;;1.73;;
6414;SDS011;3240;48.790;9.210;2023-05-07T02:42:15;2.70;;;2.17;;
6414;SDS011;3240;48.790;9.210;2023-05-07T02:44:43;2.27;;;2.07;;
6414;SDS011;3240;48.790;9.210;2023-05-07T02:47:12;2.80;;;2.23;;
6414;SDS011;3240;48.790;9.210;2023-05-07T02:49:40;2.30;;;1.83;;
6414;SDS011;3240;48.790;9.210;2023-05-07T02:52:08;3.20;;;1.80;;
6414;SDS011;3240;48.790;9.210;2023-05-07T02:54:36;2.30;;;2.10;;
6414;SDS011;3240;48.790;9.210;2023-05-07T02:57:05;2.47;;;2.00;;
6414;SDS011;3240;48.790;9.210;2023-05-07T02:59:33;2.77;;;2.13;;
6414;SDS011;3240;48.790;9.210;2023-05-07T03:02:01;2.37;;;1.93;;
6414;SDS011;3240;48.790;9.210;2023-05-07T03:04:30;3.07;;;2.43;;
6414;SDS011;3240;48.790;9.210;2023-05-07T03:06:58;2.45;;;1.98;;
6414;SDS011;3240;48.790;9.210;2023-05-07T03:09:26;2.10;;;1.90;;
6414;SDS011;3240;48.790;9.210;2023-05-07T03:11:55;2.20;;;1.70;;
6414;SDS011;3240;48.790;9.210;2023-05-07T03:14:23;2.47;;;1.93;;
6414;SDS011;3240;48.790;9.210;2023-05-07T03:16:51;2.17;;;1.90;;
6414;SDS011;3240;48.790;9.210;2023-05-07T03:19:20;2.77;;;2.00;;
6414;SDS011;3240;48.790;9.210;2023-05-07T03:21:48;3.13;;;2.07;;
6414;SDS011;3240;48.790;9.210;2023-05-07T03:24:16;2.13;;;1.60;;
6414;SDS011;3240;48.790;9.210;2023-05-07T03:26:45;2.27;;;2.07;;
6414;SDS011;3240;48.790;9.210;2023-05-07T03:29:13;2.90;;;2.17;;
6414;SDS011;3240;48.790;9.210;2023-05-07T03:31:41;2.57;;;2.10;;
6414;SDS011;3240;48.790;9.210;2023-05-07T03:34:10;2.23;;;2.03;;
6414;SDS011;3240;48.790;9.210;2023-05-07T03:36:38;3.40;;;1.93;;
6414;SDS011;3240;48.790;9.210;2023-05-07T03:39:06;2.30;;;2.10;;
6414;SDS011;3240;48.790;9.210;2023-05-07T03:41:35;3.87;;;2.33;;
6414;SDS011;3240;48.790;9.210;2023-05-07T03:44:04;2.67;;;2.10;;
6414;SDS011;3240;48.790;9.210;2023-05-07T03:46:32;2.22;;;2.00;;
6414;SDS011;3240;48.790;9.210;2023-05-07T03:49:00;2.10;;;1.73;;
6414;SDS011;3240;48.790;9.210;2023-05-07T03:51:29;2.67;;;1.80;;
6414;SDS011;3240;48.790;9.210;2023-05-07T03:53:57;3.60;;;2.20;;
6414;SDS011;3240;48.790;9.210;2023-05-07T03:56:25;2.53;;;2.00;;
6414;SDS011;3240;48.790;9.210;2023-05-07T03:58:54;3.43;;;2.20;;
6414;SDS011;3240;48.790;9.210;2023-05-07T04:01:22;2.47;;;2.17;;
6414;SDS011;3240;48.790;9.210;2023-05-07T04:03:50;2.63;;;2.10;;
6414;SDS011;3240;48.790;9.210;2023-05-07T04:06:19;2.90;;;2.40;;
6414;SDS011;3240;48.790;9.210;2023-05-07T04:08:47;2.10;;;1.90;;
6414;SDS011;3240;48.790;9.210;2023-05-07T04:11:15;2.20;;;1.77;;
6414;SDS011;3240;48.790;9.210;2023-05-07T04:13:44;2.33;;;1.93;;
6414;SDS011;3240;48.790;9.210;2023-05-07T04:16:12;3.00;;;2.17;;
6414;SDS011;3240;48.790;9.210;2023-05-07T04:18:40;1.97;;;1.80;;
6414;SDS011;3240;48.790;9.210;2023-05-07T04:21:14;1.97;;;1.80;;
6414;SDS011;3240;48.790;9.210;2023-05-07T04:23:42;2.20;;;2.00;;
6414;SDS011;3240;48.790;9.210;2023-05-07T04:26:10;2.80;;;2.13;;
6414;SDS011;3240;48.790;9.210;2023-05-07T04:28:38;2.20;;;2.00;;
6414;SDS011;3240;48.790;9.210;2023-05-07T04:31:07;2.23;;;1.70;;
6414;SDS011;3240;48.790;9.210;2023-05-07T04:33:35;2.17;;;1.80;;
6414;SDS011;3240;48.790;9.210;2023-05-07T04:36:04;2.73;;;2.10;;
6414;SDS011;3240;48.790;9.210;2023-05-07T04:38:32;2.10;;;1.83;;
6414;SDS011;3240;48.790;9.210;2023-05-07T04:41:05;2.10;;;1.80;;
6414;SDS011;3240;48.790;9.210;2023-05-07T04:43:32;2.50;;;2.03;;
6414;SDS011;3240;48.790;9.210;2023-05-07T04:46:00;2.63;;;2.13;;
6414;SDS011;3240;48.790;9.210;2023-05-07T04:48:28;3.30;;;2.00;;
6414;SDS011;3240;48.790;9.210;2023-05-07T04:50:56;2.60;;;2.30;;
6414;SDS011;3240;48.790;9.210;2023-05-07T04:53:25;2.97;;;2.07;;
6414;SDS011;3240;48.790;9.210;2023-05-07T04:55:55;3.10;;;2.30;;
6414;SDS011;3240;48.790;9.210;2023-05-07T04:58:23;2.00;;;1.80;;
6414;SDS011;3240;48.790;9.210;2023-05-07T05:00:51;3.03;;;2.00;;
6414;SDS011;3240;48.790;9.210;2023-05-07T05:03:20;2.75;;;2.30;;
6414;SDS011;3240;48.790;9.210;2023-05-07T05:05:50;2.50;;;1.90;;
6414;SDS011;3240;48.790;9.210;2023-05-07T05:08:17;2.47;;;1.90;;
6414;SDS011;3240;48.790;9.210;2023-05-07T05:10:46;2.23;;;2.03;;
6414;SDS011;3240;48.790;9.210;2023-05-07T05:13:14;1.97;;;1.77;;
6414;SDS011;3240;48.790;9.210;2023-05-07T05:15:42;2.20;;;2.00;;
6414;SDS011;3240;48.790;9.210;2023-05-07T05:18:11;2.43;;;2.03;;
6414;SDS011;3240;48.790;9.210;2023-05-07T05:20:39;2.53;;;1.90;;
6414;SDS011;3240;48.790;9.210;2023-05-07T05:23:07;2.07;;;1.87;;
6414;SDS011;3240;48.790;9.210;2023-05-07T05:25:36;2.43;;;1.90;;
6414;SDS011;3240;48.790;9.210;2023-05-07T05:28:04;1.97;;;1.77;;
6414;SDS011;3240;48.790;9.210;2023-05-07T05:30:32;2.93;;;1.97;;
6414;SDS011;3240;48.790;9.210;2023-05-07T05:33:01;2.93;;;1.90;;
6414;SDS011;3240;48.790;9.210;2023-05-07T05:35:29;2.50;;;2.07;;
6414;SDS011;3240;48.790;9.210;2023-05-07T05:37:57;3.73;;;2.00;;
6414;SDS011;3240;48.790;9.210;2023-05-07T05:40:26;2.08;;;1.92;;
6414;SDS011;3240;48.790;9.210;2023-05-07T05:42:54;2.10;;;1.87;;
6414;SDS011;3240;48.790;9.210;2023-05-07T05:45:22;2.07;;;1.90;;
6414;SDS011;3240;48.790;9.210;2023-05-07T05:47:51;2.70;;;2.17;;
6414;SDS011;3240;48.790;9.210;2023-05-07T05:50:19;4.47;;;2.37;;
6414;SDS011;3240;48.790;9.210;2023-05-07T05:52:47;2.07;;;1.80;;
6414;SDS011;3240;48.790;9.210;2023-05-07T05:55:16;4.43;;;1.73;;
6414;SDS011;3240;48.790;9.210;2023-05-07T05:57:44;2.60;;;2.30;;
6414;SDS011;3240;48.790;9.210;2023-05-07T06:00:13;2.90;;;2.63;;
6414;SDS011;3240;48.790;9.210;2023-05-07T06:02:41;2.77;;;2.40;;
6414;SDS011;3240;48.790;9.210;2023-05-07T06:05:09;2.30;;;2.10;;
6414;SDS011;3240;48.790;9.210;2023-05-07T06:07:38;2.90;;;1.53;;
6414;SDS011;3240;48.790;9.210;2023-05-07T06:10:06;1.87;;;1.77;;
6414;SDS011;3240;48.790;9.210;2023-05-07T06:12:35;2.30;;;1.90;;
6414;SDS011;3240;48.790;9.210;2023-05-07T06:15:03;2.70;;;2.00;;
6414;SDS011;3240;48.790;9.210;2023-05-07T06:17:32;2.20;;;2.00;;
6414;SDS011;3240;48.790;9.210;2023-05-07T06:20:00;2.62;;;2.22;;
6414;SDS011;3240;48.790;9.210;2023-05-07T06:22:28;4.80;;;2.00;;
6414;SDS011;3240;48.790;9.210;2023-05-07T06:24:57;2.10;;;1.83;;
6414;SDS011;3240;48.790;9.210;2023-05-07T06:27:25;2.00;;;1.80;;
6414;SDS011;3240;48.790;9.210;2023-05-07T06:29:53;2.23;;;1.80;;
6414;SDS011;3240;48.790;9.210;2023-05-07T06:32:22;3.30;;;1.90;;
6414;SDS011;3240;48.790;9.210;2023-05-07T06:34:50;2.10;;;1.90;;
6414;SDS011;3240;48.790;9.210;2023-05-07T06:37:18;2.33;;;1.90;;
6414;SDS011;3240;48.790;9.210;2023-05-07T06:39:47;1.77;;;1.63;;
6414;SDS011;3240;48.790;9.210;2023-05-07T06:42:15;2.40;;;2.20;;
6414;SDS011;3240;48.790;9.210;2023-05-07T06:44:43;2.40;;;2.10;;
6414;SDS011;3240;48.790;9.210;2023-05-07T06:47:12;2.37;;;2.17;;
6414;SDS011;3240;48.790;9.210;2023-05-07T06:49:40;2.40;;;2.20;;
6414;SDS011;3240;48.790;9.210;2023-05-07T06:52:08;2.93;;;2.67;;
6414;SDS011;3240;48.790;9.210;2023-05-07T06:54:37;3.20;;;2.63;;
6414;SDS011;3240;48.790;9.210;2023-05-07T06:57:05;2.60;;;2.40;;
6414;SDS011;3240;48.790;9.210;2023-05-07T06:59:33;2.90;;;2.30;;
6414;SDS011;3240;48.790;9.210;2023-05-07T07:02:02;2.80;;;2.20;;
6414;SDS011;3240;48.790;9.210;2023-05-07T07:04:30;2.27;;;1.80;;
6414;SDS011;3240;48.790;9.210;2023-05-07T07:06:58;2.33;;;2.03;;
6414;SDS011;3240;48.790;9.210;2023-05-07T07:09:27;5.97;;;2.83;;
6414;SDS011;3240;48.790;9.210;2023-05-07T07:11:55;3.30;;;3.00;;
6414;SDS011;3240;48.790;9.210;2023-05-07T07:14:23;4.30;;;3.20;;
6414;SDS011;3240;48.790;9.210;2023-05-07T07:16:52;1.80;;;1.70;;
6414;SDS011;3240;48.790;9.210;2023-05-07T07:19:20;2.17;;;1.97;;
6414;SDS011;3240;48.790;9.210;2023-05-07T07:21:48;3.27;;;2.07;;
6414;SDS011;3240;48.790;9.210;2023-05-07T07:24:17;3.13;;;2.67;;
6414;SDS011;3240;48.790;9.210;2023-05-07T07:26:45;2.77;;;2.10;;
6414;SDS011;3240;48.790;9.210;2023-05-07T07:29:13;4.93;;;2.73;;
6414;SDS011;3240;48.790;9.210;2023-05-07T07:31:42;2.43;;;2.17;;
6414;SDS011;3240;48.790;9.210;2023-05-07T07:34:10;2.67;;;2.27;;
6414;SDS011;3240;48.790;9.210;2023-05-07T07:36:38;2.23;;;2.03;;
6414;SDS011;3240;48.790;9.210;2023-05-07T07:39:07;2.67;;;2.47;;
6414;SDS011;3240;48.790;9.210;2023-05-07T07:41:35;2.73;;;2.30;;
6414;SDS011;3240;48.790;9.210;2023-05-07T07:44:03;2.20;;;2.00;;
6414;SDS011;3240;48.790;9.210;2023-05-07T07:46:32;2.20;;;1.87;;
6414;SDS011;3240;48.790;9.210;2023-05-07T07:49:00;3.07;;;1.93;;
6414;SDS011;3240;48.790;9.210;2023-05-07T07:51:28;2.70;;;2.00;;
6414;SDS011;3240;48.790;9.210;2023-05-07T07:53:57;3.10;;;1.83;;
6414;SDS011;3240;48.790;9.210;2023-05-07T07:56:25;2.10;;;1.80;;
6414;SDS011;3240;48.790;9.210;2023-05-07T07:58:53;4.70;;;2.17;;
6414;SDS011;3240;48.790;9.210;2023-05-07T08:01:22;2.80;;;2.10;;
6414;SDS011;3240;48.790;9.210;2023-05-07T08:03:50;1.97;;;1.77;;
6414;SDS011;3240;48.790;9.210;2023-05-07T08:06:18;2.20;;;2.00;;
6414;SDS011;3240;48.790;9.210;2023-05-07T08:08:47;2.20;;;1.97;;
6414;SDS011;3240;48.790;9.210;2023-05-07T08:11:15;1.63;;;1.53;;
6414;SDS011;3240;48.790;9.210;2023-05-07T08:13:43;1.90;;;1.70;;
6414;SDS011;3240;48.790;9.210;2023-05-07T08:16:12;2.03;;;1.70;;
6414;SDS011;3240;48.790;9.210;2023-05-07T08:18:40;1.77;;;1.67;;
6414;SDS011;3240;48.790;9.210;2023-05-07T08:21:08;2.60;;;1.70;;
6414;SDS011;3240;48.790;9.210;2023-05-07T08:23:37;2.50;;;2.20;;
6414;SDS011;3240;48.790;9.210;2023-05-07T08:26:05;2.40;;;1.77;;
6414;SDS011;3240;48.790;9.210;2023-05-07T08:28:33;4.53;;;2.23;;
6414;SDS011;3240;48.790;9.210;2023-05-07T08:31:01;1.60;;;1.50;;
6414;SDS011;3240;48.790;9.210;2023-05-07T08:33:30;1.83;;;1.60;;
6414;SDS011;3240;48.790;9.210;2023-05-07T08:35:58;4.90;;;1.60;;
6414;SDS011;3240;48.790;9.210;2023-05-07T08:38:26;2.20;;;2.00;;
6414;SDS011;3240;48.790;9.210;2023-05-07T08:40:55;1.67;;;1.40;;
6414;SDS011;3240;48.790;9.210;2023-05-07T08:43:24;2.30;;;2.10;;
6414;SDS011;3240;48.790;9.210;2023-05-07T08:45:53;1.87;;;1.67;;
6414;SDS011;3240;48.790;9.210;2023-05-07T08:48:21;2.03;;;1.80;;
6414;SDS011;3240;48.790;9.210;2023-05-07T08:50:48;2.23;;;1.63;;
6414;SDS011;3240;48.790;9.210;2023-05-07T08:53:17;2.00;;;1.87;;
6414;SDS011;3240;48.790;9.210;2023-05-07T08:55:45;1.40;;;1.30;;
6414;SDS011;3240;48.790;9.210;2023-05-07T08:58:13;3.87;;;1.60;;
6414;SDS011;3240;48.790;9.210;2023-05-07T09:00:41;1.83;;;1.63;;
6414;SDS011;3240;48.790;9.210;2023-05-07T09:03:10;1.50;;;1.40;;
6414;SDS011;3240;48.790;9.210;2023-05-07T09:05:38;2.70;;;1.90;;
6414;SDS011;3240;48.790;9.210;2023-05-07T09:08:07;1.83;;;1.73;;
6414;SDS011;3240;48.790;9.210;2023-05-07T09:10:35;1.80;;;1.70;;
6414;SDS011;3240;48.790;9.210;2023-05-07T09:13:03;1.50;;;1.40;;
6414;SDS011;3240;48.790;9.210;2023-05-07T09:15:31;3.60;;;2.20;;
6414;SDS011;3240;48.790;9.210;2023-05-07T09:18:00;1.60;;;1.50;;
6414;SDS011;3240;48.790;9.210;2023-05-07T09:20:30;4.87;;;1.97;;
6414;SDS011;3240;48.790;9.210;2023-05-07T09:22:58;2.78;;;2.00;;
6414;SDS011;3240;48.790;9.210;2023-05-07T09:25:29;1.73;;;1.57;;
6414;SDS011;3240;48.790;9.210;2023-05-07T09:27:57;2.47;;;2.27;;
6414;SDS011;3240;48.790;9.210;2023-05-07T09:30:27;2.30;;;1.70;;
6414;SDS011;3240;48.790;9.210;2023-05-07T09:32:56;2.20;;;1.67;;
6414;SDS011;3240;48.790;9.210;2023-05-07T09:35:23;2.07;;;1.87;;
6414;SDS011;3240;48.790;9.210;2023-05-07T09:37:52;1.60;;;1.50;;
6414;SDS011;3240;48.790;9.210;2023-05-07T09:40:21;2.17;;;1.77;;
6414;SDS011;3240;48.790;9.210;2023-05-07T09:42:49;1.70;;;1.47;;
6414;SDS011;3240;48.790;9.210;2023-05-07T09:45:25;1.77;;;1.67;;
6414;SDS011;3240;48.790;9.210;2023-05-07T09:47:56;1.50;;;1.40;;
6414;SDS011;3240;48.790;9.210;2023-05-07T09:50:27;1.97;;;1.50;;
6414;SDS011;3240;48.790;9.210;2023-05-07T09:52:55;1.87;;;1.60;;
6414;SDS011;3240;48.790;9.210;2023-05-07T09:55:23;1.60;;;1.50;;
6414;SDS011;3240;48.790;9.210;2023-05-07T09:57:52;1.63;;;1.53;;
6414;SDS011;3240;48.790;9.210;2023-05-07T10:00:20;6.80;;;2.17;;
6414;SDS011;3240;48.790;9.210;2023-05-07T10:02:49;1.50;;;1.40;;
6414;SDS011;3240;48.790;9.210;2023-05-07T10:05:16;1.60;;;1.50;;
6414;SDS011;3240;48.790;9.210;2023-05-07T10:07:45;1.77;;;1.40;;
6414;SDS011;3240;48.790;9.210;2023-05-07T10:10:13;1.40;;;1.30;;
6414;SDS011;3240;48.790;9.210;2023-05-07T10:12:41;1.40;;;1.30;;
6414;SDS011;3240;48.790;9.210;2023-05-07T10:15:10;2.13;;;1.73;;
6414;SDS011;3240;48.790;9.210;2023-05-07T10:17:38;2.23;;;1.90;;
6414;SDS011;3240;48.790;9.210;2023-05-07T10:20:07;1.50;;;1.37;;
6414;SDS011;3240;48.790;9.210;2023-05-07T10:22:37;1.57;;;1.47;;
6414;SDS011;3240;48.790;9.210;2023-05-07T10:25:06;1.83;;;1.60;;
6414;SDS011;3240;48.790;9.210;2023-05-07T10:27:34;2.40;;;1.47;;
6414;SDS011;3240;48.790;9.210;2023-05-07T10:30:08;1.57;;;1.27;;
6414;SDS011;3240;48.790;9.210;2023-05-07T10:32:40;2.20;;;1.73;;
6414;SDS011;3240;48.790;9.210;2023-05-07T10:35:09;1.50;;;1.40;;
6414;SDS011;3240;48.790;9.210;2023-05-07T10:37:35;1.55;;;1.42;;
6414;SDS011;3240;48.790;9.210;2023-05-07T10:40:04;1.70;;;1.30;;
6414;SDS011;3240;48.790;9.210;2023-05-07T10:42:32;1.97;;;1.40;;
6414;SDS011;3240;48.790;9.210;2023-05-07T10:45:11;1.43;;;1.33;;
6414;SDS011;3240;48.790;9.210;2023-05-07T10:50:20;1.87;;;1.47;;
6414;SDS011;3240;48.790;9.210;2023-05-07T10:53:15;1.70;;;1.60;;
6414;SDS011;3240;48.790;9.210;2023-05-07T10:55:19;1.50;;;1.40;;
6414;SDS011;3240;48.790;9.210;2023-05-07T10:57:47;1.60;;;1.50;;
6414;SDS011;3240;48.790;9.210;2023-05-07T11:00:40;1.80;;;1.30;;
6414;SDS011;3240;48.790;9.210;2023-05-07T11:05:22;2.83;;;1.60;;
6414;SDS011;3240;48.790;9.210;2023-05-07T11:08:05;1.90;;;1.30;;
6414;SDS011;3240;48.790;9.210;2023-05-07T11:13:07;1.93;;;1.30;;
6414;SDS011;3240;48.790;9.210;2023-05-07T11:15:37;2.03;;;1.10;;
6414;SDS011;3240;48.790;9.210;2023-05-07T11:18:05;2.20;;;1.90;;
6414;SDS011;3240;48.790;9.210;2023-05-07T11:23:07;1.80;;;1.70;;
6414;SDS011;3240;48.790;9.210;2023-05-07T11:25:35;1.97;;;1.47;;
6414;SDS011;3240;48.790;9.210;2023-05-07T11:28:05;1.97;;;1.57;;
6414;SDS011;3240;48.790;9.210;2023-05-07T11:30:33;1.60;;;1.50;;
6414;SDS011;3240;48.790;9.210;2023-05-07T11:33:01;1.57;;;1.47;;
6414;SDS011;3240;48.790;9.210;2023-05-07T11:35:29;1.30;;;1.20;;
6414;SDS011;3240;48.790;9.210;2023-05-07T11:37:59;1.40;;;1.30;;
6414;SDS011;3240;48.790;9.210;2023-05-07T11:40:26;2.47;;;1.30;;
6414;SDS011;3240;48.790;9.210;2023-05-07T11:42:54;1.70;;;1.30;;
6414;SDS011;3240;48.790;9.210;2023-05-07T11:45:23;1.30;;;1.20;;
6414;SDS011;3240;48.790;9.210;2023-05-07T11:47:51;1.50;;;1.40;;
6414;SDS011;3240;48.790;9.210;2023-05-07T11:50:19;1.77;;;1.67;;
6414;SDS011;3240;48.790;9.210;2023-05-07T11:52:50;2.03;;;1.30;;
6414;SDS011;3240;48.790;9.210;2023-05-07T11:55:18;1.43;;;1.33;;
6414;SDS011;3240;48.790;9.210;2023-05-07T11:57:47;1.40;;;1.30;;
6414;SDS011;3240;48.790;9.210;2023-05-07T12:00:15;1.20;;;1.10;;
6414;SDS011;3240;48.790;9.210;2023-05-07T12:02:44;1.48;;;1.35;;
6414;SDS011;3240;48.790;9.210;2023-05-07T12:05:12;1.83;;;1.50;;
6414;SDS011;3240;48.790;9.210;2023-05-07T12:07:40;1.70;;;1.60;;
6414;SDS011;3240;48.790;9.210;2023-05-07T12:10:09;2.93;;;1.40;;
6414;SDS011;3240;48.790;9.210;2023-05-07T12:12:38;1.33;;;1.23;;
6414;SDS011;3240;48.790;9.210;2023-05-07T12:15:06;1.73;;;1.47;;
6414;SDS011;3240;48.790;9.210;2023-05-07T12:17:34;1.60;;;1.50;;
6414;SDS011;3240;48.790;9.210;2023-05-07T12:20:03;1.80;;;1.70;;
6414;SDS011;3240;48.790;9.210;2023-05-07T12:22:31;2.40;;;1.63;;
6414;SDS011;3240;48.790;9.210;2023-05-07T12:25:00;2.30;;;1.33;;
6414;SDS011;3240;48.790;9.210;2023-05-07T12:27:28;1.80;;;1.60;;
6414;SDS011;3240;48.790;9.210;2023-05-07T12:29:57;2.57;;;1.90;;
6414;SDS011;3240;48.790;9.210;2023-05-07T12:32:25;5.73;;;1.67;;
6414;SDS011;3240;48.790;9.210;2023-05-07T12:34:53;2.53;;;1.70;;
6414;SDS011;3240;48.790;9.210;2023-05-07T12:37:23;4.27;;;2.30;;
6414;SDS011;3240;48.790;9.210;2023-05-07T12:42:25;2.13;;;1.80;;
6414;SDS011;3240;48.790;9.210;2023-05-07T12:44:53;3.47;;;1.93;;
6414;SDS011;3240;48.790;9.210;2023-05-07T12:47:21;4.07;;;1.60;;
6414;SDS011;3240;48.790;9.210;2023-05-07T12:49:50;3.83;;;2.03;;
6414;SDS011;3240;48.790;9.210;2023-05-07T12:52:18;2.17;;;1.97;;
6414;SDS011;3240;48.790;9.210;2023-05-07T12:54:46;2.70;;;2.37;;
6414;SDS011;3240;48.790;9.210;2023-05-07T12:57:15;4.90;;;2.10;;
6414;SDS011;3240;48.790;9.210;2023-05-07T12:59:43;3.87;;;2.37;;
6414;SDS011;3240;48.790;9.210;2023-05-07T13:02:11;3.43;;;1.80;;
6414;SDS011;3240;48.790;9.210;2023-05-07T13:04:40;3.93;;;1.80;;
6414;SDS011;3240;48.790;9.210;2023-05-07T13:07:08;2.20;;;1.60;;
6414;SDS011;3240;48.790;9.210;2023-05-07T13:09:36;2.30;;;1.07;;
6414;SDS011;3240;48.790;9.210;2023-05-07T13:12:05;2.20;;;1.13;;
6414;SDS011;3240;48.790;9.210;2023-05-07T13:14:33;1.60;;;1.17;;
6414;SDS011;3240;48.790;9.210;2023-05-07T13:17:01;2.60;;;1.15;;
6414;SDS011;3240;48.790;9.210;2023-05-07T13:19:30;2.10;;;1.10;;
6414;SDS011;3240;48.790;9.210;2023-05-07T13:21:58;2.57;;;1.50;;
6414;SDS011;3240;48.790;9.210;2023-05-07T13:24:26;2.70;;;1.87;;
6414;SDS011;3240;48.790;9.210;2023-05-07T13:26:55;2.80;;;1.50;;
6414;SDS011;3240;48.790;9.210;2023-05-07T13:29:23;2.33;;;1.40;;
6414;SDS011;3240;48.790;9.210;2023-05-07T13:31:51;1.70;;;1.27;;
6414;SDS011;3240;48.790;9.210;2023-05-07T13:34:20;1.50;;;1.40;;
6414;SDS011;3240;48.790;9.210;2023-05-07T13:36:48;2.03;;;1.37;;
6414;SDS011;3240;48.790;9.210;2023-05-07T13:39:16;2.90;;;1.50;;
6414;SDS011;3240;48.790;9.210;2023-05-07T13:41:45;1.70;;;1.60;;
6414;SDS011;3240;48.790;9.210;2023-05-07T13:44:13;2.53;;;1.50;;
6414;SDS011;3240;48.790;9.210;2023-05-07T13:46:41;1.63;;;1.40;;
6414;SDS011;3240;48.790;9.210;2023-05-07T13:49:10;3.47;;;1.73;;
6414;SDS011;3240;48.790;9.210;2023-05-07T13:51:38;2.30;;;1.10;;
6414;SDS011;3240;48.790;9.210;2023-05-07T13:54:06;1.58;;;1.42;;
6414;SDS011;3240;48.790;9.210;2023-05-07T13:56:35;1.83;;;1.60;;
6414;SDS011;3240;48.790;9.210;2023-05-07T13:59:03;1.60;;;1.37;;
6414;SDS011;3240;48.790;9.210;2023-05-07T14:01:31;3.23;;;1.70;;
6414;SDS011;3240;48.790;9.210;2023-05-07T14:04:00;1.50;;;1.40;;
6414;SDS011;3240;48.790;9.210;2023-05-07T14:06:28;2.20;;;1.47;;
6414;SDS011;3240;48.790;9.210;2023-05-07T14:08:56;3.33;;;1.43;;
6414;SDS011;3240;48.790;9.210;2023-05-07T14:11:25;3.30;;;1.47;;
6414;SDS011;3240;48.790;9.210;2023-05-07T14:13:53;2.97;;;1.00;;
6414;SDS011;3240;48.790;9.210;2023-05-07T14:16:21;4.37;;;1.40;;
6414;SDS011;3240;48.790;9.210;2023-05-07T14:18:50;2.70;;;1.40;;
6414;SDS011;3240;48.790;9.210;2023-05-07T14:21:18;2.70;;;1.60;;
6414;SDS011;3240;48.790;9.210;2023-05-07T14:23:46;3.77;;;1.60;;
6414;SDS011;3240;48.790;9.210;2023-05-07T14:26:15;3.40;;;1.60;;
6414;SDS011;3240;48.790;9.210;2023-05-07T14:28:43;1.53;;;1.27;;
6414;SDS011;3240;48.790;9.210;2023-05-07T14:31:12;1.30;;;1.20;;
6414;SDS011;3240;48.790;9.210;2023-05-07T14:33:40;2.23;;;1.40;;
6414;SDS011;3240;48.790;9.210;2023-05-07T14:36:08;2.20;;;1.27;;
6414;SDS011;3240;48.790;9.210;2023-05-07T14:38:36;1.90;;;0.90;;
6414;SDS011;3240;48.790;9.210;2023-05-07T14:41:05;2.70;;;1.30;;
6414;SDS011;3240;48.790;9.210;2023-05-07T14:43:33;1.50;;;1.00;;
6414;SDS011;3240;48.790;9.210;2023-05-07T14:46:01;1.23;;;1.07;;
6414;SDS011;3240;48.790;9.210;2023-05-07T14:48:30;2.23;;;1.10;;
6414;SDS011;3240;48.790;9.210;2023-05-07T14:50:58;1.83;;;1.37;;
6414;SDS011;3240;48.790;9.210;2023-05-07T14:53:26;2.60;;;1.30;;
6414;SDS011;3240;48.790;9.210;2023-05-07T14:55:55;1.40;;;1.30;;
6414;SDS011;3240;48.790;9.210;2023-05-07T14:58:23;1.23;;;1.10;;
6414;SDS011;3240;48.790;9.210;2023-05-07T15:00:51;2.30;;;0.90;;
6414;SDS011;3240;48.790;9.210;2023-05-07T15:03:20;1.20;;;1.07;;
6414;SDS011;3240;48.790;9.210;2023-05-07T15:05:48;1.37;;;1.10;;
6414;SDS011;3240;48.790;9.210;2023-05-07T15:08:17;2.60;;;1.50;;
6414;SDS011;3240;48.790;9.210;2023-05-07T15:10:45;1.90;;;1.30;;
6414;SDS011;3240;48.790;9.210;2023-05-07T15:13:13;3.67;;;1.40;;
6414;SDS011;3240;48.790;9.210;2023-05-07T15:15:42;1.30;;;1.00;;
6414;SDS011;3240;48.790;9.210;2023-05-07T15:18:10;1.80;;;1.23;;
6414;SDS011;3240;48.790;9.210;2023-05-07T15:20:38;3.20;;;1.30;;
6414;SDS011;3240;48.790;9.210;2023-05-07T15:23:07;1.20;;;1.10;;
6414;SDS011;3240;48.790;9.210;2023-05-07T15:25:35;1.60;;;1.20;;
6414;SDS011;3240;48.790;9.210;2023-05-07T15:28:03;4.00;;;1.70;;
6414;SDS011;3240;48.790;9.210;2023-05-07T15:30:31;1.57;;;1.47;;
6414;SDS011;3240;48.790;9.210;2023-05-07T15:33:00;2.17;;;1.50;;
6414;SDS011;3240;48.790;9.210;2023-05-07T15:35:28;2.50;;;1.60;;